WAT5612 KMSP-KOKC
Flight info
| Callsign | WAT5612 |
|---|---|
| Flight time | 1h 37m |
| Altitude | 38000 |
| Route | ORSKY3 ONTIJ KK57E PER GULLI3 |
| Aircraft | B738/M-S/C |
Departure
| Time | 2026-04-25 14:31 |
|---|---|
| Airport | Minneapolis–Saint Paul International Airport / Wold–Chamberlain Field (KMSP) |
Arrival
| Time | 2026-04-25 16:09 |
|---|---|
| Airport | OKC Will Rogers World Airport (KOKC) |
| Time | Latitude | Longitude | Altitude | Speed | Heading |
|---|---|---|---|---|---|
| 2026-04-25 14:15 | 44.87886 | -93.20577 | 831 ft | 0 kts | 332° |
| 2026-04-25 14:25 | 44.87882 | -93.20574 | 831 ft | 2 kts | 329° |
| 2026-04-25 14:25 | 44.87872 | -93.20565 | 829 ft | 2 kts | 323° |
| 2026-04-25 14:26 | 44.87857 | -93.20544 | 827 ft | 2 kts | 295° |
| 2026-04-25 14:26 | 44.87855 | -93.20521 | 831 ft | 2 kts | 241° |
| 2026-04-25 14:26 | 44.87864 | -93.20509 | 828 ft | 1 kts | 191° |
| 2026-04-25 14:26 | 44.87865 | -93.20508 | 823 ft | 0 kts | 187° |
| 2026-04-25 14:28 | 44.87858 | -93.20509 | 827 ft | 5 kts | 187° |
| 2026-04-25 14:28 | 44.87807 | -93.20566 | 832 ft | 14 kts | 230° |
| 2026-04-25 14:28 | 44.87722 | -93.20636 | 832 ft | 16 kts | 168° |
| 2026-04-25 14:29 | 44.87643 | -93.20488 | 824 ft | 22 kts | 121° |
| 2026-04-25 14:29 | 44.87565 | -93.20311 | 827 ft | 21 kts | 122° |
| 2026-04-25 14:29 | 44.87490 | -93.20141 | 827 ft | 19 kts | 121° |
| 2026-04-25 14:29 | 44.87399 | -93.20107 | 829 ft | 10 kts | 221° |
| 2026-04-25 14:30 | 44.87383 | -93.20194 | 827 ft | 10 kts | 291° |
| 2026-04-25 14:30 | 44.87391 | -93.20214 | 823 ft | 0 kts | 300° |
| 2026-04-25 14:30 | 44.87423 | -93.20291 | 823 ft | 39 kts | 301° |
| 2026-04-25 14:31 | 44.87549 | -93.20581 | 825 ft | 84 kts | 301° |
| 2026-04-25 14:31 | 44.87980 | -93.21573 | 830 ft | 151 kts | 300° |
| 2026-04-25 14:31 | 44.88550 | -93.22944 | 1424 ft | 168 kts | 299° |
| 2026-04-25 14:31 | 44.89161 | -93.24432 | 2229 ft | 180 kts | 301° |
| 2026-04-25 14:32 | 44.89823 | -93.25992 | 2933 ft | 198 kts | 297° |
| 2026-04-25 14:32 | 44.90041 | -93.28010 | 3169 ft | 227 kts | 256° |
| 2026-04-25 14:32 | 44.89143 | -93.29916 | 3544 ft | 252 kts | 218° |
| 2026-04-25 14:32 | 44.87515 | -93.31003 | 4261 ft | 263 kts | 201° |
| 2026-04-25 14:33 | 44.85802 | -93.31924 | 5226 ft | 264 kts | 202° |
| 2026-04-25 14:33 | 44.84099 | -93.32869 | 6274 ft | 262 kts | 202° |
| 2026-04-25 14:33 | 44.82417 | -93.33837 | 7270 ft | 260 kts | 203° |
| 2026-04-25 14:33 | 44.80760 | -93.34821 | 8284 ft | 257 kts | 204° |
| 2026-04-25 14:34 | 44.79119 | -93.35815 | 9315 ft | 255 kts | 206° |
| 2026-04-25 14:34 | 44.77502 | -93.36810 | 10300 ft | 253 kts | 207° |
| 2026-04-25 14:34 | 44.75837 | -93.37846 | 10716 ft | 274 kts | 207° |
| 2026-04-25 14:34 | 44.74018 | -93.38988 | 10922 ft | 298 kts | 207° |
| 2026-04-25 14:35 | 44.72074 | -93.40208 | 11405 ft | 311 kts | 207° |
| 2026-04-25 14:35 | 44.70079 | -93.41458 | 12135 ft | 316 kts | 207° |
| 2026-04-25 14:35 | 44.68054 | -93.42727 | 12903 ft | 320 kts | 208° |
| 2026-04-25 14:35 | 44.66006 | -93.44012 | 13647 ft | 325 kts | 208° |
| 2026-04-25 14:36 | 44.63922 | -93.45320 | 14345 ft | 330 kts | 208° |
| 2026-04-25 14:36 | 44.61852 | -93.46619 | 15072 ft | 332 kts | 208° |
| 2026-04-25 14:36 | 44.59785 | -93.48051 | 15828 ft | 331 kts | 213° |
| 2026-04-25 14:36 | 44.57785 | -93.49670 | 16557 ft | 333 kts | 213° |
| 2026-04-25 14:37 | 44.55777 | -93.51326 | 17245 ft | 335 kts | 213° |
| 2026-04-25 14:37 | 44.53773 | -93.52976 | 18124 ft | 334 kts | 213° |
| 2026-04-25 14:37 | 44.51757 | -93.54628 | 18761 ft | 338 kts | 213° |
| 2026-04-25 14:37 | 44.49714 | -93.56294 | 19308 ft | 342 kts | 213° |
| 2026-04-25 14:38 | 44.47646 | -93.57974 | 19880 ft | 345 kts | 213° |
| 2026-04-25 14:38 | 44.45559 | -93.59666 | 20481 ft | 348 kts | 213° |
| 2026-04-25 14:38 | 44.43457 | -93.61366 | 21059 ft | 351 kts | 213° |
| 2026-04-25 14:38 | 44.41332 | -93.63084 | 21629 ft | 354 kts | 213° |
| 2026-04-25 14:39 | 44.39192 | -93.64812 | 22184 ft | 357 kts | 213° |
| 2026-04-25 14:39 | 44.37025 | -93.66560 | 22758 ft | 360 kts | 213° |
| 2026-04-25 14:39 | 44.34846 | -93.68318 | 23281 ft | 363 kts | 213° |
| 2026-04-25 14:39 | 44.32645 | -93.70091 | 23796 ft | 367 kts | 213° |
| 2026-04-25 14:40 | 44.30429 | -93.71875 | 24241 ft | 369 kts | 213° |
| 2026-04-25 14:40 | 44.28195 | -93.73672 | 24697 ft | 371 kts | 213° |
| 2026-04-25 14:40 | 44.25948 | -93.75478 | 25140 ft | 374 kts | 213° |
| 2026-04-25 14:40 | 44.23687 | -93.77294 | 25551 ft | 377 kts | 213° |
| 2026-04-25 14:41 | 44.21406 | -93.79125 | 25968 ft | 379 kts | 213° |
| 2026-04-25 14:41 | 44.19142 | -93.80939 | 26379 ft | 382 kts | 214° |
| 2026-04-25 14:41 | 44.16832 | -93.82787 | 26777 ft | 384 kts | 214° |
| 2026-04-25 14:41 | 44.14507 | -93.84646 | 27127 ft | 387 kts | 214° |
| 2026-04-25 14:42 | 44.12156 | -93.86525 | 27483 ft | 391 kts | 214° |
| 2026-04-25 14:42 | 44.11360 | -93.87161 | 27615 ft | 391 kts | 214° |
| 2026-04-25 14:42 | 44.07420 | -93.90305 | 28275 ft | 394 kts | 214° |
| 2026-04-25 14:42 | 44.05033 | -93.92206 | 28648 ft | 397 kts | 214° |
| 2026-04-25 14:43 | 44.02630 | -93.94119 | 29003 ft | 399 kts | 214° |
| 2026-04-25 14:43 | 44.00216 | -93.96041 | 29348 ft | 401 kts | 214° |
| 2026-04-25 14:43 | 43.97785 | -93.97972 | 29691 ft | 403 kts | 214° |
| 2026-04-25 14:43 | 43.95346 | -93.99909 | 29997 ft | 406 kts | 214° |
| 2026-04-25 14:44 | 43.92884 | -94.01863 | 30216 ft | 410 kts | 214° |
| 2026-04-25 14:44 | 43.90402 | -94.03830 | 30498 ft | 411 kts | 214° |
| 2026-04-25 14:44 | 43.87927 | -94.05788 | 30947 ft | 408 kts | 214° |
| 2026-04-25 14:44 | 43.85471 | -94.07727 | 31439 ft | 404 kts | 215° |
| 2026-04-25 14:45 | 43.83034 | -94.09651 | 31851 ft | 403 kts | 215° |
| 2026-04-25 14:45 | 43.80601 | -94.11572 | 32198 ft | 402 kts | 215° |
| 2026-04-25 14:45 | 43.78173 | -94.13489 | 32564 ft | 402 kts | 215° |
| 2026-04-25 14:45 | 43.75751 | -94.15398 | 32963 ft | 400 kts | 216° |
| 2026-04-25 14:46 | 43.73332 | -94.17304 | 33239 ft | 401 kts | 216° |
| 2026-04-25 14:46 | 43.70904 | -94.19216 | 33504 ft | 402 kts | 216° |
| 2026-04-25 14:46 | 43.68482 | -94.21118 | 33975 ft | 398 kts | 216° |
| 2026-04-25 14:46 | 43.66085 | -94.22997 | 34397 ft | 395 kts | 216° |
| 2026-04-25 14:47 | 43.63692 | -94.24871 | 34597 ft | 396 kts | 216° |
| 2026-04-25 14:47 | 43.62912 | -94.25483 | 34643 ft | 397 kts | 216° |
| 2026-04-25 14:47 | 43.58871 | -94.28647 | 34990 ft | 399 kts | 215° |
| 2026-04-25 14:47 | 43.56460 | -94.30531 | 35249 ft | 398 kts | 215° |
| 2026-04-25 14:48 | 43.54043 | -94.32418 | 35405 ft | 400 kts | 215° |
| 2026-04-25 14:48 | 43.51639 | -94.34295 | 35524 ft | 403 kts | 215° |
| 2026-04-25 14:48 | 43.49196 | -94.36200 | 35743 ft | 403 kts | 215° |
| 2026-04-25 14:48 | 43.46758 | -94.38098 | 36022 ft | 402 kts | 215° |
| 2026-04-25 14:49 | 43.41843 | -94.41924 | 36099 ft | 410 kts | 215° |
| 2026-04-25 14:49 | 43.36854 | -94.45798 | 36085 ft | 412 kts | 215° |
| 2026-04-25 14:50 | 43.31872 | -94.49655 | 36067 ft | 410 kts | 215° |
| 2026-04-25 14:50 | 43.26577 | -94.52733 | 36087 ft | 418 kts | 203° |
| 2026-04-25 14:51 | 43.20989 | -94.54999 | 36074 ft | 419 kts | 203° |
| 2026-04-25 14:51 | 43.15401 | -94.57272 | 36066 ft | 419 kts | 203° |
| 2026-04-25 14:52 | 43.09818 | -94.59564 | 36060 ft | 419 kts | 203° |
| 2026-04-25 14:52 | 43.06073 | -94.61112 | 36062 ft | 421 kts | 203° |
| 2026-04-25 14:53 | 42.98582 | -94.64205 | 36058 ft | 423 kts | 203° |
| 2026-04-25 14:53 | 42.92938 | -94.66529 | 36060 ft | 424 kts | 203° |
| 2026-04-25 14:54 | 42.87317 | -94.68838 | 36050 ft | 425 kts | 203° |
| 2026-04-25 14:54 | 42.81660 | -94.71158 | 36054 ft | 424 kts | 203° |
| 2026-04-25 14:55 | 42.76007 | -94.73471 | 36052 ft | 424 kts | 203° |
| 2026-04-25 14:55 | 42.70357 | -94.75780 | 36052 ft | 423 kts | 203° |
| 2026-04-25 14:56 | 42.64722 | -94.78077 | 36052 ft | 423 kts | 203° |
| 2026-04-25 14:56 | 42.59092 | -94.80369 | 36052 ft | 422 kts | 203° |
| 2026-04-25 14:57 | 42.53475 | -94.82651 | 36054 ft | 421 kts | 203° |
| 2026-04-25 14:57 | 42.47869 | -94.84924 | 36048 ft | 420 kts | 202° |
| 2026-04-25 14:58 | 42.42274 | -94.87189 | 36053 ft | 420 kts | 202° |
| 2026-04-25 14:58 | 42.37627 | -94.89068 | 36050 ft | 419 kts | 202° |
| 2026-04-25 14:59 | 42.32038 | -94.91322 | 36050 ft | 419 kts | 202° |
| 2026-04-25 14:59 | 42.26443 | -94.93576 | 36044 ft | 419 kts | 202° |
| 2026-04-25 15:00 | 42.20845 | -94.95825 | 36049 ft | 420 kts | 202° |
| 2026-04-25 15:00 | 42.15244 | -94.98073 | 36048 ft | 421 kts | 202° |
| 2026-04-25 15:01 | 42.09628 | -95.00322 | 36039 ft | 422 kts | 202° |
| 2026-04-25 15:01 | 42.03998 | -95.02572 | 36038 ft | 422 kts | 202° |
| 2026-04-25 15:02 | 41.98359 | -95.04822 | 36038 ft | 423 kts | 202° |
| 2026-04-25 15:02 | 41.92710 | -95.07071 | 36043 ft | 424 kts | 202° |
| 2026-04-25 15:03 | 41.87047 | -95.09322 | 36009 ft | 425 kts | 202° |
| 2026-04-25 15:03 | 41.81381 | -95.11569 | 36024 ft | 425 kts | 202° |
| 2026-04-25 15:04 | 41.75699 | -95.13820 | 36026 ft | 427 kts | 202° |
| 2026-04-25 15:04 | 41.70041 | -95.16056 | 36015 ft | 427 kts | 202° |
| 2026-04-25 15:05 | 41.64339 | -95.18305 | 36004 ft | 427 kts | 202° |
| 2026-04-25 15:06 | 41.55784 | -95.21672 | 36014 ft | 427 kts | 202° |
| 2026-04-25 15:06 | 41.50087 | -95.23909 | 36017 ft | 427 kts | 202° |
| 2026-04-25 15:07 | 41.44385 | -95.26144 | 36000 ft | 427 kts | 202° |
| 2026-04-25 15:07 | 41.38687 | -95.28374 | 35989 ft | 426 kts | 201° |
| 2026-04-25 15:08 | 41.33000 | -95.30595 | 35996 ft | 426 kts | 201° |
| 2026-04-25 15:08 | 41.27313 | -95.32812 | 35989 ft | 426 kts | 201° |
| 2026-04-25 15:09 | 41.21626 | -95.35025 | 35969 ft | 426 kts | 201° |
| 2026-04-25 15:09 | 41.13097 | -95.38337 | 35986 ft | 426 kts | 201° |
| 2026-04-25 15:10 | 41.07411 | -95.40539 | 35991 ft | 425 kts | 201° |
| 2026-04-25 15:11 | 40.98884 | -95.43835 | 35967 ft | 426 kts | 201° |
| 2026-04-25 15:11 | 40.93238 | -95.46013 | 35981 ft | 425 kts | 201° |
| 2026-04-25 15:12 | 40.84687 | -95.49304 | 35975 ft | 426 kts | 201° |
| 2026-04-25 15:12 | 40.79955 | -95.51121 | 35972 ft | 426 kts | 201° |
| 2026-04-25 15:13 | 40.70461 | -95.54759 | 35965 ft | 426 kts | 200° |
| 2026-04-25 15:14 | 40.64762 | -95.56937 | 35970 ft | 427 kts | 200° |
| 2026-04-25 15:14 | 40.59058 | -95.59113 | 35964 ft | 427 kts | 200° |
| 2026-04-25 15:15 | 40.53367 | -95.61280 | 35961 ft | 428 kts | 200° |
| 2026-04-25 15:15 | 40.47654 | -95.63452 | 35972 ft | 428 kts | 200° |
| 2026-04-25 15:16 | 40.41933 | -95.65623 | 35953 ft | 428 kts | 200° |
| 2026-04-25 15:16 | 40.33359 | -95.68870 | 35921 ft | 427 kts | 200° |
| 2026-04-25 15:17 | 40.24785 | -95.72109 | 35924 ft | 428 kts | 200° |
| 2026-04-25 15:18 | 40.19059 | -95.74267 | 35935 ft | 429 kts | 200° |
| 2026-04-25 15:18 | 40.10439 | -95.77508 | 35902 ft | 430 kts | 200° |
| 2026-04-25 15:19 | 40.05657 | -95.79302 | 35918 ft | 431 kts | 200° |
| 2026-04-25 15:19 | 39.98955 | -95.81813 | 35926 ft | 432 kts | 200° |
| 2026-04-25 15:20 | 39.93171 | -95.83976 | 35911 ft | 433 kts | 200° |
| 2026-04-25 15:20 | 39.87379 | -95.86137 | 35895 ft | 433 kts | 201° |
| 2026-04-25 15:21 | 39.81582 | -95.88297 | 35909 ft | 433 kts | 201° |
| 2026-04-25 15:21 | 39.75777 | -95.90456 | 35910 ft | 434 kts | 201° |
| 2026-04-25 15:22 | 39.69974 | -95.92610 | 35907 ft | 434 kts | 201° |
| 2026-04-25 15:22 | 39.64174 | -95.94760 | 35888 ft | 434 kts | 201° |
| 2026-04-25 15:23 | 39.58376 | -95.96906 | 35900 ft | 433 kts | 201° |
| 2026-04-25 15:23 | 39.52580 | -95.99047 | 35904 ft | 433 kts | 201° |
| 2026-04-25 15:24 | 39.46817 | -96.01263 | 35901 ft | 431 kts | 203° |
| 2026-04-25 15:24 | 39.42105 | -96.03336 | 35879 ft | 430 kts | 204° |
| 2026-04-25 15:25 | 39.35504 | -96.06300 | 35897 ft | 430 kts | 204° |
| 2026-04-25 15:25 | 39.29887 | -96.08784 | 35902 ft | 429 kts | 204° |
| 2026-04-25 15:26 | 39.24229 | -96.11257 | 35900 ft | 430 kts | 204° |
| 2026-04-25 15:26 | 39.18560 | -96.13722 | 35878 ft | 430 kts | 204° |
| 2026-04-25 15:27 | 39.12890 | -96.16182 | 35892 ft | 430 kts | 204° |
| 2026-04-25 15:28 | 39.04365 | -96.19875 | 35894 ft | 431 kts | 204° |
| 2026-04-25 15:28 | 38.98675 | -96.22334 | 35889 ft | 432 kts | 204° |
| 2026-04-25 15:29 | 38.92979 | -96.24792 | 35878 ft | 432 kts | 204° |
| 2026-04-25 15:29 | 38.87282 | -96.27247 | 35888 ft | 432 kts | 204° |
| 2026-04-25 15:30 | 38.81576 | -96.29700 | 35895 ft | 432 kts | 204° |
| 2026-04-25 15:30 | 38.75869 | -96.32151 | 35881 ft | 433 kts | 204° |
| 2026-04-25 15:31 | 38.70157 | -96.34599 | 35868 ft | 433 kts | 205° |
| 2026-04-25 15:31 | 38.64449 | -96.37041 | 35874 ft | 433 kts | 205° |
| 2026-04-25 15:32 | 38.58782 | -96.39461 | 35890 ft | 432 kts | 205° |
| 2026-04-25 15:32 | 38.53078 | -96.41894 | 35883 ft | 432 kts | 205° |
| 2026-04-25 15:33 | 38.44524 | -96.45534 | 35884 ft | 431 kts | 205° |
| 2026-04-25 15:33 | 38.38830 | -96.47952 | 35899 ft | 431 kts | 205° |
| 2026-04-25 15:34 | 38.33138 | -96.50365 | 35887 ft | 431 kts | 205° |
| 2026-04-25 15:34 | 38.29337 | -96.51975 | 35883 ft | 430 kts | 205° |
| 2026-04-25 15:35 | 38.18947 | -96.56365 | 35858 ft | 429 kts | 205° |
| 2026-04-25 15:36 | 38.10449 | -96.59946 | 35866 ft | 428 kts | 205° |
| 2026-04-25 15:36 | 38.04792 | -96.62325 | 35860 ft | 428 kts | 205° |
| 2026-04-25 15:37 | 37.99138 | -96.64698 | 35836 ft | 428 kts | 206° |
| 2026-04-25 15:37 | 37.93495 | -96.67064 | 35869 ft | 427 kts | 206° |
| 2026-04-25 15:38 | 37.87856 | -96.69424 | 35883 ft | 427 kts | 206° |
| 2026-04-25 15:38 | 37.82217 | -96.71780 | 35888 ft | 427 kts | 206° |
| 2026-04-25 15:39 | 37.76577 | -96.74133 | 35888 ft | 427 kts | 206° |
| 2026-04-25 15:39 | 37.70938 | -96.76482 | 35886 ft | 426 kts | 206° |
| 2026-04-25 15:40 | 37.67206 | -96.78034 | 35889 ft | 426 kts | 206° |
| 2026-04-25 15:40 | 37.59701 | -96.81150 | 35875 ft | 427 kts | 206° |
| 2026-04-25 15:41 | 37.54056 | -96.83490 | 35866 ft | 427 kts | 206° |
| 2026-04-25 15:41 | 37.48422 | -96.85820 | 35849 ft | 424 kts | 207° |
| 2026-04-25 15:42 | 37.42854 | -96.88115 | 35835 ft | 419 kts | 207° |
| 2026-04-25 15:42 | 37.37338 | -96.90391 | 35837 ft | 416 kts | 207° |
| 2026-04-25 15:43 | 37.31852 | -96.92653 | 35841 ft | 415 kts | 207° |
| 2026-04-25 15:43 | 37.29099 | -96.93790 | 35447 ft | 421 kts | 207° |
| 2026-04-25 15:43 | 37.26322 | -96.94934 | 34934 ft | 419 kts | 207° |
| 2026-04-25 15:44 | 37.23548 | -96.96073 | 34370 ft | 419 kts | 207° |
| 2026-04-25 15:44 | 37.20779 | -96.97209 | 33710 ft | 420 kts | 207° |
| 2026-04-25 15:44 | 37.17999 | -96.98350 | 32970 ft | 420 kts | 207° |
| 2026-04-25 15:44 | 37.15221 | -96.99488 | 32298 ft | 420 kts | 207° |
| 2026-04-25 15:45 | 37.12459 | -97.00615 | 31835 ft | 415 kts | 207° |
| 2026-04-25 15:45 | 37.09728 | -97.01729 | 31343 ft | 411 kts | 207° |
| 2026-04-25 15:45 | 37.07025 | -97.02831 | 30877 ft | 406 kts | 207° |
| 2026-04-25 15:45 | 37.06156 | -97.03186 | 30724 ft | 405 kts | 207° |
| 2026-04-25 15:46 | 37.01698 | -97.05006 | 29909 ft | 399 kts | 207° |
| 2026-04-25 15:46 | 36.99072 | -97.06078 | 29398 ft | 395 kts | 207° |
| 2026-04-25 15:46 | 36.96475 | -97.07137 | 28921 ft | 390 kts | 207° |
| 2026-04-25 15:46 | 36.93911 | -97.08182 | 28450 ft | 385 kts | 206° |
| 2026-04-25 15:47 | 36.91409 | -97.09201 | 27984 ft | 382 kts | 206° |
| 2026-04-25 15:47 | 36.88896 | -97.10225 | 27519 ft | 378 kts | 206° |
| 2026-04-25 15:47 | 36.86407 | -97.11238 | 27077 ft | 374 kts | 206° |
| 2026-04-25 15:47 | 36.83941 | -97.12242 | 26623 ft | 371 kts | 206° |
| 2026-04-25 15:48 | 36.81494 | -97.13238 | 26176 ft | 369 kts | 206° |
| 2026-04-25 15:48 | 36.79066 | -97.14223 | 25734 ft | 366 kts | 205° |
| 2026-04-25 15:48 | 36.76649 | -97.15203 | 25271 ft | 364 kts | 206° |
| 2026-04-25 15:48 | 36.74199 | -97.16025 | 24823 ft | 370 kts | 195° |
| 2026-04-25 15:49 | 36.71587 | -97.16121 | 24334 ft | 378 kts | 187° |
| 2026-04-25 15:49 | 36.68957 | -97.16042 | 23860 ft | 378 kts | 186° |
| 2026-04-25 15:49 | 36.66331 | -97.15939 | 23404 ft | 377 kts | 186° |
| 2026-04-25 15:49 | 36.64560 | -97.15872 | 23047 ft | 376 kts | 185° |
| 2026-04-25 15:50 | 36.61109 | -97.15754 | 22411 ft | 372 kts | 185° |
| 2026-04-25 15:50 | 36.59364 | -97.15703 | 22108 ft | 370 kts | 185° |
| 2026-04-25 15:50 | 36.56802 | -97.15634 | 21664 ft | 367 kts | 185° |
| 2026-04-25 15:50 | 36.54257 | -97.15573 | 21203 ft | 364 kts | 185° |
| 2026-04-25 15:51 | 36.51768 | -97.15516 | 20762 ft | 361 kts | 185° |
| 2026-04-25 15:51 | 36.50075 | -97.15479 | 20481 ft | 360 kts | 185° |
| 2026-04-25 15:51 | 36.46776 | -97.15408 | 19930 ft | 356 kts | 185° |
| 2026-04-25 15:51 | 36.44305 | -97.15355 | 19519 ft | 354 kts | 185° |
| 2026-04-25 15:52 | 36.41847 | -97.15303 | 19099 ft | 352 kts | 184° |
| 2026-04-25 15:52 | 36.39399 | -97.15251 | 18692 ft | 351 kts | 184° |
| 2026-04-25 15:52 | 36.36965 | -97.15199 | 18298 ft | 349 kts | 184° |
| 2026-04-25 15:52 | 36.34543 | -97.15147 | 17883 ft | 347 kts | 183° |
| 2026-04-25 15:53 | 36.32135 | -97.15095 | 17444 ft | 345 kts | 183° |
| 2026-04-25 15:53 | 36.29752 | -97.15043 | 17167 ft | 338 kts | 183° |
| 2026-04-25 15:53 | 36.27411 | -97.14992 | 16778 ft | 335 kts | 183° |
| 2026-04-25 15:53 | 36.25084 | -97.14942 | 16396 ft | 335 kts | 182° |
| 2026-04-25 15:54 | 36.22747 | -97.14894 | 15991 ft | 337 kts | 182° |
| 2026-04-25 15:54 | 36.20386 | -97.14845 | 15592 ft | 342 kts | 182° |
| 2026-04-25 15:54 | 36.17991 | -97.14795 | 15178 ft | 347 kts | 182° |
| 2026-04-25 15:54 | 36.15574 | -97.14744 | 14752 ft | 346 kts | 182° |
| 2026-04-25 15:55 | 36.13174 | -97.14691 | 14333 ft | 344 kts | 182° |
| 2026-04-25 15:55 | 36.10785 | -97.14640 | 13912 ft | 342 kts | 182° |
| 2026-04-25 15:55 | 36.08408 | -97.14588 | 13482 ft | 340 kts | 182° |
| 2026-04-25 15:55 | 36.06050 | -97.14537 | 13023 ft | 338 kts | 181° |
| 2026-04-25 15:56 | 36.03710 | -97.14486 | 12583 ft | 335 kts | 182° |
| 2026-04-25 15:56 | 36.01388 | -97.14437 | 12152 ft | 332 kts | 182° |
| 2026-04-25 15:56 | 35.99094 | -97.14714 | 11454 ft | 333 kts | 199° |
| 2026-04-25 15:56 | 35.97011 | -97.15890 | 10996 ft | 329 kts | 214° |
| 2026-04-25 15:57 | 35.95274 | -97.17579 | 10617 ft | 315 kts | 221° |
| 2026-04-25 15:57 | 35.93667 | -97.19342 | 10479 ft | 296 kts | 222° |
| 2026-04-25 15:57 | 35.92181 | -97.21004 | 10349 ft | 283 kts | 222° |
| 2026-04-25 15:57 | 35.90747 | -97.22606 | 10230 ft | 274 kts | 222° |
| 2026-04-25 15:58 | 35.89376 | -97.24131 | 10111 ft | 265 kts | 222° |
| 2026-04-25 15:58 | 35.88028 | -97.25621 | 10027 ft | 255 kts | 221° |
| 2026-04-25 15:58 | 35.86730 | -97.27043 | 9977 ft | 246 kts | 221° |
| 2026-04-25 15:58 | 35.85441 | -97.28452 | 9740 ft | 251 kts | 221° |
| 2026-04-25 15:59 | 35.84123 | -97.29893 | 9469 ft | 256 kts | 221° |
| 2026-04-25 15:59 | 35.82776 | -97.31366 | 9176 ft | 260 kts | 221° |
| 2026-04-25 15:59 | 35.81427 | -97.32840 | 8868 ft | 259 kts | 221° |
| 2026-04-25 15:59 | 35.80082 | -97.34311 | 8566 ft | 258 kts | 220° |
| 2026-04-25 16:00 | 35.78743 | -97.35773 | 8267 ft | 257 kts | 220° |
| 2026-04-25 16:00 | 35.77859 | -97.36739 | 8076 ft | 256 kts | 220° |
| 2026-04-25 16:00 | 35.76080 | -97.38683 | 7674 ft | 255 kts | 220° |
| 2026-04-25 16:00 | 35.74755 | -97.40129 | 7385 ft | 254 kts | 219° |
| 2026-04-25 16:01 | 35.73433 | -97.41571 | 7097 ft | 254 kts | 219° |
| 2026-04-25 16:01 | 35.72110 | -97.43014 | 6786 ft | 254 kts | 219° |
| 2026-04-25 16:01 | 35.70800 | -97.44441 | 6499 ft | 249 kts | 219° |
| 2026-04-25 16:01 | 35.69524 | -97.45832 | 6188 ft | 242 kts | 219° |
| 2026-04-25 16:02 | 35.68283 | -97.47186 | 5898 ft | 235 kts | 218° |
| 2026-04-25 16:02 | 35.67076 | -97.48501 | 5636 ft | 228 kts | 218° |
| 2026-04-25 16:02 | 35.65923 | -97.49757 | 5393 ft | 221 kts | 217° |
| 2026-04-25 16:02 | 35.64792 | -97.50987 | 5173 ft | 214 kts | 217° |
| 2026-04-25 16:03 | 35.63697 | -97.52179 | 5069 ft | 208 kts | 217° |
| 2026-04-25 16:03 | 35.62601 | -97.53367 | 4967 ft | 213 kts | 217° |
| 2026-04-25 16:03 | 35.61483 | -97.54581 | 4888 ft | 216 kts | 217° |
| 2026-04-25 16:03 | 35.60357 | -97.55804 | 4786 ft | 214 kts | 216° |
| 2026-04-25 16:04 | 35.59264 | -97.56993 | 4679 ft | 204 kts | 216° |
| 2026-04-25 16:04 | 35.58231 | -97.58117 | 4590 ft | 195 kts | 216° |
| 2026-04-25 16:04 | 35.57190 | -97.59243 | 4398 ft | 202 kts | 216° |
| 2026-04-25 16:04 | 35.56086 | -97.60317 | 4192 ft | 200 kts | 202° |
| 2026-04-25 16:05 | 35.54793 | -97.60559 | 4029 ft | 182 kts | 176° |
| 2026-04-25 16:05 | 35.53566 | -97.60565 | 3779 ft | 170 kts | 178° |
| 2026-04-25 16:05 | 35.51373 | -97.60586 | 3410 ft | 150 kts | 177° |
| 2026-04-25 16:06 | 35.50330 | -97.60581 | 3199 ft | 149 kts | 175° |
| 2026-04-25 16:06 | 35.49315 | -97.60581 | 3020 ft | 144 kts | 176° |
| 2026-04-25 16:06 | 35.48324 | -97.60583 | 2809 ft | 140 kts | 176° |
| 2026-04-25 16:06 | 35.47313 | -97.60579 | 2635 ft | 149 kts | 175° |
| 2026-04-25 16:07 | 35.46292 | -97.60578 | 2449 ft | 142 kts | 174° |
| 2026-04-25 16:07 | 35.45653 | -97.60577 | 2336 ft | 137 kts | 177° |
| 2026-04-25 16:07 | 35.44378 | -97.60608 | 2111 ft | 140 kts | 182° |
| 2026-04-25 16:07 | 35.43413 | -97.60670 | 1915 ft | 136 kts | 172° |
| 2026-04-25 16:08 | 35.42467 | -97.60546 | 1701 ft | 142 kts | 173° |
| 2026-04-25 16:08 | 35.41504 | -97.60577 | 1548 ft | 140 kts | 181° |
| 2026-04-25 16:08 | 35.40537 | -97.60576 | 1354 ft | 137 kts | 178° |
| 2026-04-25 16:08 | 35.39639 | -97.60571 | 1287 ft | 100 kts | 180° |
| 2026-04-25 16:09 | 35.39296 | -97.60572 | 1292 ft | 27 kts | 180° |
| 2026-04-25 16:09 | 35.39216 | -97.60421 | 1293 ft | 22 kts | 90° |
| 2026-04-25 16:09 | 35.39216 | -97.60235 | 1294 ft | 22 kts | 90° |
| 2026-04-25 16:09 | 35.39216 | -97.60053 | 1291 ft | 21 kts | 90° |
| 2026-04-25 16:10 | 35.39224 | -97.59882 | 1291 ft | 19 kts | 65° |
| 2026-04-25 16:10 | 35.39326 | -97.59826 | 1293 ft | 13 kts | 0° |
| 2026-04-25 16:10 | 35.39403 | -97.59841 | 1295 ft | 10 kts | 339° |
| 2026-04-25 16:10 | 35.39456 | -97.59848 | 1296 ft | 5 kts | 0° |
| 2026-04-25 16:11 | 35.39473 | -97.59848 | 1296 ft | 0 kts | 0° |